createdAt,value
2023-01-31T00:00:21.450Z,91.20
2023-01-31T00:01:21.422Z,91.09
2023-01-31T00:02:21.485Z,91.30
2023-01-31T00:03:21.441Z,91.41
2023-01-31T00:04:21.397Z,91.20
2023-01-31T00:05:21.696Z,91.20
2023-01-31T00:06:21.359Z,91.61
2023-01-31T00:07:21.340Z,91.72
2023-01-31T00:08:21.330Z,92.03
2023-01-31T00:09:21.334Z,92.24
2023-01-31T00:10:21.304Z,92.38
2023-01-31T00:11:21.287Z,92.49
2023-01-31T00:12:21.276Z,92.18
2023-01-31T00:13:21.264Z,92.38
2023-01-31T00:14:21.260Z,92.59
2023-01-31T00:15:21.622Z,92.69
2023-01-31T00:16:21.224Z,92.38
2023-01-31T00:17:21.232Z,92.38
2023-01-31T00:18:21.202Z,92.38
2023-01-31T00:19:21.197Z,92.18
2023-01-31T00:20:21.172Z,92.28
2023-01-31T00:21:21.156Z,92.28
2023-01-31T00:22:21.149Z,92.38
2023-01-31T00:23:21.140Z,92.63
2023-01-31T00:24:21.134Z,92.63
2023-01-31T00:25:21.519Z,92.53
2023-01-31T00:26:21.127Z,92.28
2023-01-31T00:27:21.083Z,92.32
2023-01-31T00:28:21.062Z,92.32
2023-01-31T00:29:21.060Z,92.43
2023-01-31T00:30:21.033Z,92.53
2023-01-31T00:31:21.149Z,92.63
2023-01-31T00:32:21.060Z,92.74
2023-01-31T00:33:20.986Z,92.84
2023-01-31T00:34:20.996Z,92.84
2023-01-31T00:35:21.214Z,92.74
2023-01-31T00:36:20.946Z,92.53
2023-01-31T00:37:20.935Z,92.53
2023-01-31T00:38:20.932Z,92.28
2023-01-31T00:39:20.926Z,92.28
2023-01-31T00:40:20.899Z,92.38
2023-01-31T00:41:20.881Z,92.59
2023-01-31T00:42:20.868Z,92.74
2023-01-31T00:43:20.855Z,92.74
2023-01-31T00:44:20.862Z,92.63
2023-01-31T00:45:21.232Z,92.49
2023-01-31T00:46:21.044Z,92.63
2023-01-31T00:47:20.829Z,92.69
2023-01-31T00:48:20.793Z,92.84
2023-01-31T00:49:20.785Z,92.94
2023-01-31T00:50:20.762Z,93.15
2023-01-31T00:51:20.750Z,93.46
2023-01-31T00:52:20.804Z,93.56
2023-01-31T00:53:20.729Z,93.66
2023-01-31T00:54:20.710Z,93.87
2023-01-31T00:55:21.098Z,93.98
2023-01-31T00:56:20.696Z,94.08
2023-01-31T00:57:20.667Z,94.08
2023-01-31T00:58:20.654Z,94.12
2023-01-31T00:59:20.652Z,94.12
2023-01-31T01:00:20.646Z,94.12
2023-01-31T01:01:20.618Z,94.12
2023-01-31T01:02:20.689Z,94.12
2023-01-31T01:03:20.619Z,94.23
2023-01-31T01:04:20.583Z,94.33
2023-01-31T01:05:20.956Z,94.33
2023-01-31T01:06:20.560Z,94.43
2023-01-31T01:07:20.535Z,94.54
2023-01-31T01:08:20.526Z,94.54
2023-01-31T01:09:20.507Z,94.58
2023-01-31T01:10:20.512Z,94.68
2023-01-31T01:11:20.495Z,94.79
2023-01-31T01:12:20.466Z,94.68
2023-01-31T01:13:20.453Z,94.58
2023-01-31T01:14:20.445Z,94.58
2023-01-31T01:15:20.768Z,94.68
2023-01-31T01:16:20.526Z,94.79
2023-01-31T01:17:20.402Z,94.89
2023-01-31T01:18:20.392Z,94.89
2023-01-31T01:19:20.401Z,94.89
2023-01-31T01:20:20.413Z,94.79
2023-01-31T01:21:20.347Z,94.79
2023-01-31T01:22:20.346Z,94.68
2023-01-31T01:23:20.327Z,94.79
2023-01-31T01:24:20.320Z,94.89
2023-01-31T01:25:20.792Z,95.00
2023-01-31T01:26:20.333Z,95.04
2023-01-31T01:27:20.279Z,95.25
2023-01-31T01:28:20.262Z,95.36
2023-01-31T01:29:20.264Z,95.36
2023-01-31T01:30:20.271Z,95.36
2023-01-31T01:31:20.500Z,95.46
2023-01-31T01:32:20.238Z,95.46
2023-01-31T01:33:20.192Z,95.56
2023-01-31T01:34:20.182Z,95.46
2023-01-31T01:35:20.630Z,95.46
2023-01-31T01:36:20.159Z,95.46
2023-01-31T01:37:20.262Z,95.36
2023-01-31T01:38:20.132Z,95.04
2023-01-31T01:39:20.116Z,95.04
2023-01-31T01:40:20.127Z,95.04
2023-01-31T01:41:20.090Z,95.00
2023-01-31T01:42:20.076Z,94.84
2023-01-31T01:43:20.083Z,94.84
2023-01-31T01:44:20.082Z,95.15
2023-01-31T01:45:21.285Z,95.04
2023-01-31T01:46:20.039Z,95.15
2023-01-31T01:47:20.010Z,95.36
2023-01-31T01:48:20.008Z,95.25
2023-01-31T01:49:20.019Z,95.25
2023-01-31T01:50:20.052Z,95.36
2023-01-31T01:51:19.984Z,95.25
2023-01-31T01:52:19.946Z,95.36
2023-01-31T01:53:19.933Z,95.46
2023-01-31T01:54:19.923Z,95.87
2023-01-31T01:55:20.279Z,95.98
2023-01-31T01:56:19.901Z,95.87
2023-01-31T01:57:19.885Z,95.92
2023-01-31T01:58:19.867Z,96.23
2023-01-31T01:59:19.854Z,96.33
2023-01-31T02:00:19.840Z,96.33
2023-01-31T02:01:19.911Z,96.29
2023-01-31T02:02:19.904Z,96.33
2023-01-31T02:03:19.798Z,96.50
2023-01-31T02:04:19.792Z,96.39
2023-01-31T02:05:20.082Z,96.39
2023-01-31T02:06:19.774Z,96.39
2023-01-31T02:07:19.773Z,96.39
2023-01-31T02:08:19.740Z,96.29
2023-01-31T02:09:19.728Z,96.19
2023-01-31T02:10:19.719Z,96.29
2023-01-31T02:11:19.713Z,96.29
2023-01-31T02:12:19.681Z,96.44
2023-01-31T02:13:19.668Z,96.50
2023-01-31T02:14:19.660Z,96.50
2023-01-31T02:15:19.940Z,96.54
2023-01-31T02:16:19.699Z,96.54
2023-01-31T02:17:19.628Z,96.50
2023-01-31T02:18:19.611Z,96.39
2023-01-31T02:19:19.595Z,96.19
2023-01-31T02:20:19.618Z,96.08
2023-01-31T02:21:19.601Z,95.98
2023-01-31T02:22:19.556Z,95.77
2023-01-31T02:23:19.571Z,95.67
2023-01-31T02:24:19.529Z,95.62
2023-01-31T02:25:19.993Z,95.67
2023-01-31T02:26:19.572Z,95.46
2023-01-31T02:27:19.486Z,95.31
2023-01-31T02:28:19.479Z,95.20
2023-01-31T02:29:19.468Z,95.25
2023-01-31T02:30:19.459Z,95.31
2023-01-31T02:31:19.489Z,95.20
2023-01-31T02:32:19.425Z,95.10
2023-01-31T02:33:19.415Z,95.04
2023-01-31T02:34:19.408Z,94.89
2023-01-31T02:35:19.664Z,94.79
2023-01-31T02:36:19.398Z,94.58
2023-01-31T02:37:19.355Z,94.58
2023-01-31T02:38:19.347Z,94.58
2023-01-31T02:39:19.361Z,94.48
2023-01-31T02:40:19.323Z,94.37
2023-01-31T02:41:19.324Z,94.27
2023-01-31T02:42:19.294Z,93.96
2023-01-31T02:43:19.296Z,93.96
2023-01-31T02:44:19.284Z,93.85
2023-01-31T02:45:19.594Z,93.85
2023-01-31T02:46:19.339Z,93.96
2023-01-31T02:47:19.228Z,94.06
2023-01-31T02:48:19.210Z,94.17
2023-01-31T02:49:19.203Z,94.17
2023-01-31T02:50:19.187Z,94.17
2023-01-31T02:51:19.203Z,94.06
2023-01-31T02:52:19.164Z,94.06
2023-01-31T02:53:19.163Z,94.06
2023-01-31T02:54:19.137Z,94.21
2023-01-31T02:55:19.475Z,94.17
2023-01-31T02:56:19.129Z,94.06
2023-01-31T02:57:19.099Z,94.17
2023-01-31T02:58:19.784Z,94.11
2023-01-31T02:59:19.433Z,94.11
2023-01-31T03:00:19.641Z,94.01
2023-01-31T03:01:19.507Z,93.90
2023-01-31T03:02:19.446Z,94.11
2023-01-31T03:03:19.115Z,94.11
2023-01-31T03:04:19.182Z,94.11
2023-01-31T03:05:19.821Z,94.21
2023-01-31T03:06:19.006Z,94.01
2023-01-31T03:07:18.966Z,94.11
2023-01-31T03:08:18.948Z,94.36
2023-01-31T03:09:18.942Z,94.26
2023-01-31T03:10:19.476Z,94.26
2023-01-31T03:11:19.402Z,94.26
2023-01-31T03:12:19.487Z,94.36
2023-01-31T03:13:19.189Z,94.36
2023-01-31T03:14:19.316Z,94.46
2023-01-31T03:15:19.827Z,94.46
2023-01-31T03:16:18.998Z,94.26
2023-01-31T03:17:18.846Z,94.15
2023-01-31T03:18:18.818Z,94.15
2023-01-31T03:19:18.806Z,94.15
2023-01-31T03:20:18.794Z,94.15
2023-01-31T03:21:18.813Z,94.15
2023-01-31T03:22:18.781Z,94.15
2023-01-31T03:23:19.241Z,94.15
2023-01-31T03:24:19.177Z,94.36
2023-01-31T03:25:19.782Z,94.46
2023-01-31T03:26:18.968Z,94.36
2023-01-31T03:27:18.838Z,94.46
2023-01-31T03:28:18.794Z,94.46
2023-01-31T03:29:18.735Z,94.61
2023-01-31T03:30:18.680Z,94.71
2023-01-31T03:31:18.829Z,94.92
2023-01-31T03:32:18.659Z,94.92
2023-01-31T03:33:18.637Z,94.82
2023-01-31T03:34:18.619Z,94.92
2023-01-31T03:35:19.074Z,95.03
2023-01-31T03:36:19.000Z,95.17
2023-01-31T03:37:18.911Z,95.38
2023-01-31T03:38:18.842Z,95.59
2023-01-31T03:39:18.723Z,95.79
2023-01-31T03:40:18.587Z,95.90
2023-01-31T03:41:18.524Z,95.90
2023-01-31T03:42:18.658Z,96.00
2023-01-31T03:43:18.530Z,96.04
2023-01-31T03:44:18.488Z,96.15
2023-01-31T03:45:19.105Z,96.25
2023-01-31T03:46:18.537Z,96.36
2023-01-31T03:47:18.478Z,96.47
2023-01-31T03:48:18.436Z,96.57
2023-01-31T03:49:18.429Z,96.47
2023-01-31T03:50:18.421Z,96.25
2023-01-31T03:51:18.407Z,96.25
2023-01-31T03:52:18.406Z,96.25
2023-01-31T03:53:18.375Z,96.25
2023-01-31T03:54:18.358Z,96.25
2023-01-31T03:55:18.895Z,96.15
2023-01-31T03:56:18.338Z,96.15
2023-01-31T03:57:18.340Z,96.04
2023-01-31T03:58:18.313Z,96.20
2023-01-31T03:59:18.323Z,96.41
2023-01-31T04:00:18.310Z,96.51
2023-01-31T04:01:18.302Z,96.47
2023-01-31T04:02:18.283Z,96.30
2023-01-31T04:03:18.249Z,96.15
2023-01-31T04:04:18.242Z,96.04
2023-01-31T04:05:18.860Z,95.94
2023-01-31T04:06:18.240Z,95.84
2023-01-31T04:07:18.206Z,95.84
2023-01-31T04:08:18.183Z,95.94
2023-01-31T04:09:18.173Z,95.84
2023-01-31T04:10:18.156Z,95.73
2023-01-31T04:11:18.149Z,95.84
2023-01-31T04:12:18.147Z,95.73
2023-01-31T04:13:18.156Z,95.53
2023-01-31T04:14:18.116Z,95.47
2023-01-31T04:15:18.710Z,95.47
2023-01-31T04:16:18.135Z,95.47
2023-01-31T04:17:18.082Z,95.47
2023-01-31T04:18:18.063Z,95.36
2023-01-31T04:19:18.047Z,95.26
2023-01-31T04:20:18.045Z,95.47
2023-01-31T04:21:18.019Z,95.47
2023-01-31T04:22:18.018Z,95.62
2023-01-31T04:23:17.993Z,95.47
2023-01-31T04:24:17.981Z,95.51
2023-01-31T04:25:18.658Z,95.93
2023-01-31T04:26:17.998Z,96.03
2023-01-31T04:27:17.972Z,95.93
2023-01-31T04:28:17.928Z,96.18
2023-01-31T04:29:17.921Z,96.49
2023-01-31T04:30:17.909Z,96.49
2023-01-31T04:31:18.035Z,96.49
2023-01-31T04:32:17.936Z,96.49
2023-01-31T04:33:17.884Z,96.70
2023-01-31T04:34:17.851Z,97.47
2023-01-31T04:35:18.099Z,97.78
2023-01-31T04:36:17.822Z,98.31
2023-01-31T04:37:17.821Z,98.31
2023-01-31T04:38:17.822Z,98.16
2023-01-31T04:39:17.812Z,97.99
2023-01-31T04:40:17.777Z,97.99
2023-01-31T04:41:17.762Z,98.62
2023-01-31T04:42:17.745Z,98.72
2023-01-31T04:43:17.754Z,98.62
2023-01-31T04:44:17.724Z,98.62
2023-01-31T04:45:18.224Z,98.62
2023-01-31T04:46:17.743Z,98.52
2023-01-31T04:47:17.717Z,98.66
2023-01-31T04:48:17.686Z,98.66
2023-01-31T04:49:17.656Z,98.62
2023-01-31T04:50:17.643Z,98.52
2023-01-31T04:51:17.637Z,98.72
2023-01-31T04:52:17.616Z,99.04
2023-01-31T04:53:17.621Z,98.93
2023-01-31T04:54:17.598Z,98.83
2023-01-31T04:55:17.991Z,98.83
2023-01-31T04:56:17.579Z,98.83
2023-01-31T04:57:17.557Z,98.72
2023-01-31T04:58:17.560Z,98.41
2023-01-31T04:59:17.534Z,98.41
2023-01-31T05:00:17.534Z,98.41
2023-01-31T05:01:17.518Z,98.41
2023-01-31T05:02:17.488Z,98.62
2023-01-31T05:03:17.515Z,98.93
2023-01-31T05:04:17.464Z,98.47
2023-01-31T05:05:17.712Z,98.16
2023-01-31T05:06:17.440Z,98.16
2023-01-31T05:07:17.430Z,98.26
2023-01-31T05:08:17.435Z,98.05
2023-01-31T05:09:17.399Z,97.64
2023-01-31T05:10:17.394Z,97.49
2023-01-31T05:11:17.376Z,97.38
2023-01-31T05:12:17.368Z,97.28
2023-01-31T05:13:17.379Z,97.17
2023-01-31T05:14:17.345Z,96.97
2023-01-31T05:15:17.364Z,96.86
2023-01-31T05:16:17.352Z,96.76
2023-01-31T05:17:17.298Z,96.86
2023-01-31T05:18:17.299Z,96.97
2023-01-31T05:19:17.296Z,96.97
2023-01-31T05:20:17.261Z,97.07
2023-01-31T05:21:17.258Z,96.97
2023-01-31T05:22:17.239Z,97.07
2023-01-31T05:23:17.230Z,96.97
2023-01-31T05:24:17.204Z,96.86
2023-01-31T05:25:17.201Z,96.97
2023-01-31T05:26:17.283Z,96.97
2023-01-31T05:27:17.174Z,96.97
2023-01-31T05:28:17.175Z,96.97
2023-01-31T05:29:17.149Z,96.86
2023-01-31T05:30:17.133Z,96.86
2023-01-31T05:31:17.252Z,96.55
2023-01-31T05:32:17.102Z,96.45
2023-01-31T05:33:17.105Z,96.34
2023-01-31T05:34:17.086Z,96.34
2023-01-31T05:35:17.099Z,96.24
2023-01-31T05:36:17.063Z,96.24
2023-01-31T05:37:17.051Z,96.09
2023-01-31T05:38:17.032Z,95.89
2023-01-31T05:39:17.030Z,95.78
2023-01-31T05:40:17.015Z,95.89
2023-01-31T05:41:16.998Z,95.89
2023-01-31T05:42:16.974Z,95.78
2023-01-31T05:43:16.964Z,95.89
2023-01-31T05:44:16.967Z,95.93
2023-01-31T05:45:16.945Z,96.03
2023-01-31T05:46:16.926Z,95.89
2023-01-31T05:47:16.919Z,95.93
2023-01-31T05:48:16.902Z,96.14
2023-01-31T05:49:16.904Z,96.14
2023-01-31T05:50:16.874Z,96.14
2023-01-31T05:51:16.888Z,96.14
2023-01-31T05:52:16.853Z,96.24
2023-01-31T05:53:16.834Z,96.45
2023-01-31T05:54:16.839Z,96.39
2023-01-31T05:55:16.835Z,96.39
2023-01-31T05:56:16.816Z,96.49
2023-01-31T05:57:16.791Z,96.59
2023-01-31T05:58:16.783Z,96.59
2023-01-31T05:59:16.788Z,96.59
2023-01-31T06:00:16.751Z,96.80
2023-01-31T06:01:16.739Z,96.80
2023-01-31T06:02:16.776Z,96.91
2023-01-31T06:03:16.748Z,96.91
2023-01-31T06:04:16.710Z,97.16
2023-01-31T06:05:16.692Z,97.06
2023-01-31T06:06:16.671Z,96.95
2023-01-31T06:07:16.696Z,96.91
2023-01-31T06:08:16.650Z,96.95
2023-01-31T06:09:16.678Z,96.91
2023-01-31T06:10:16.626Z,97.06
2023-01-31T06:11:16.613Z,97.06
2023-01-31T06:12:16.599Z,97.27
2023-01-31T06:13:16.586Z,97.27
2023-01-31T06:14:16.585Z,97.27
2023-01-31T06:15:16.562Z,97.37
2023-01-31T06:16:16.608Z,97.27
2023-01-31T06:17:16.533Z,97.27
2023-01-31T06:18:16.525Z,97.27
2023-01-31T06:19:16.542Z,97.27
2023-01-31T06:20:16.516Z,97.27
2023-01-31T06:21:16.480Z,97.27
2023-01-31T06:22:16.462Z,97.37
2023-01-31T06:23:16.500Z,97.16
2023-01-31T06:24:16.456Z,97.27
2023-01-31T06:25:16.436Z,97.27
2023-01-31T06:26:16.500Z,97.37
2023-01-31T06:27:16.407Z,97.47
2023-01-31T06:28:16.388Z,97.41
2023-01-31T06:29:16.390Z,97.52
2023-01-31T06:30:16.391Z,97.62
2023-01-31T06:31:16.448Z,97.62
2023-01-31T06:32:16.357Z,97.72
2023-01-31T06:33:16.325Z,97.72
2023-01-31T06:34:16.327Z,97.72
2023-01-31T06:35:16.307Z,97.72
2023-01-31T06:36:18.844Z,97.83
2023-01-31T06:37:16.274Z,97.83
2023-01-31T06:38:16.273Z,97.72
2023-01-31T06:39:16.285Z,97.62
2023-01-31T06:40:16.234Z,97.52
2023-01-31T06:41:16.220Z,97.31
2023-01-31T06:42:16.216Z,97.31
2023-01-31T06:43:16.200Z,97.31
2023-01-31T06:44:16.181Z,97.41
2023-01-31T06:45:16.190Z,97.52
2023-01-31T06:46:16.221Z,97.20
2023-01-31T06:47:16.144Z,97.31
2023-01-31T06:48:16.133Z,97.20
2023-01-31T06:49:16.118Z,97.20
2023-01-31T06:50:16.125Z,97.41
2023-01-31T06:51:16.101Z,97.52
2023-01-31T06:52:16.080Z,97.62
2023-01-31T06:53:16.095Z,97.52
2023-01-31T06:54:16.056Z,97.52
2023-01-31T06:55:16.077Z,97.52
2023-01-31T06:56:16.030Z,97.52
2023-01-31T06:57:16.016Z,97.52
2023-01-31T06:58:16.009Z,97.62
2023-01-31T06:59:15.993Z,97.72
2023-01-31T07:00:16.086Z,97.72
2023-01-31T07:01:15.997Z,97.62
2023-01-31T07:02:15.954Z,97.62
2023-01-31T07:03:15.941Z,97.41
2023-01-31T07:04:15.921Z,97.31
2023-01-31T07:05:15.931Z,97.20
2023-01-31T07:06:15.899Z,97.20
2023-01-31T07:07:15.886Z,97.10
2023-01-31T07:08:15.884Z,97.10
2023-01-31T07:09:15.866Z,97.20
2023-01-31T07:10:15.868Z,97.16
2023-01-31T07:11:15.860Z,96.85
2023-01-31T07:12:15.834Z,96.64
2023-01-31T07:13:15.806Z,96.64
2023-01-31T07:14:15.812Z,96.43
2023-01-31T07:15:15.795Z,96.33
2023-01-31T07:16:15.826Z,96.18
2023-01-31T07:17:15.756Z,95.97
2023-01-31T07:18:15.748Z,95.87
2023-01-31T07:19:15.734Z,95.76
2023-01-31T07:20:15.730Z,95.76
2023-01-31T07:21:15.710Z,95.87
2023-01-31T07:22:15.700Z,95.76
2023-01-31T07:23:15.684Z,95.76
2023-01-31T07:24:15.674Z,95.76
2023-01-31T07:25:15.684Z,95.66
2023-01-31T07:26:15.701Z,95.56
2023-01-31T07:27:15.651Z,95.56
2023-01-31T07:28:15.634Z,95.56
2023-01-31T07:29:15.603Z,95.45
2023-01-31T07:30:15.609Z,95.40
2023-01-31T07:31:15.651Z,95.40
2023-01-31T07:32:15.570Z,95.20
2023-01-31T07:33:15.557Z,95.20
2023-01-31T07:34:15.550Z,95.09
2023-01-31T07:35:15.563Z,95.09
2023-01-31T07:36:15.515Z,94.99
2023-01-31T07:37:15.501Z,94.78
2023-01-31T07:38:15.489Z,94.47
2023-01-31T07:39:15.473Z,94.37
2023-01-31T07:40:15.509Z,94.47
2023-01-31T07:41:15.446Z,94.43
2023-01-31T07:42:15.435Z,94.32
2023-01-31T07:43:15.447Z,94.53
2023-01-31T07:44:15.411Z,94.32
2023-01-31T07:45:23.424Z,94.22
2023-01-31T07:46:16.516Z,93.91
2023-01-31T07:47:15.370Z,93.70
2023-01-31T07:48:15.376Z,93.70
2023-01-31T07:49:15.344Z,93.70
2023-01-31T07:50:15.345Z,93.70
2023-01-31T07:51:15.327Z,93.55
2023-01-31T07:52:15.347Z,92.93
2023-01-31T07:53:15.298Z,92.88
2023-01-31T07:54:15.285Z,92.57
2023-01-31T07:55:15.286Z,92.57
2023-01-31T07:56:15.256Z,92.26
2023-01-31T07:57:15.243Z,92.36
2023-01-31T07:58:15.236Z,92.47
2023-01-31T07:59:15.255Z,92.16
2023-01-31T08:00:16.211Z,92.01
2023-01-31T08:01:15.281Z,92.01
2023-01-31T08:02:15.182Z,91.70
2023-01-31T08:03:15.179Z,91.60
2023-01-31T08:04:21.688Z,91.49
2023-01-31T08:05:15.287Z,91.28
2023-01-31T08:06:15.130Z,91.28
2023-01-31T08:07:15.122Z,91.03
2023-01-31T08:08:15.118Z,91.03
2023-01-31T08:09:15.095Z,90.93
2023-01-31T08:10:15.109Z,90.72
2023-01-31T08:11:15.068Z,90.72
2023-01-31T08:12:15.049Z,90.93
2023-01-31T08:13:15.042Z,90.83
2023-01-31T08:14:15.034Z,91.03
2023-01-31T08:15:15.065Z,90.72
2023-01-31T08:16:15.000Z,90.83
2023-01-31T08:17:15.022Z,90.93
2023-01-31T08:18:14.974Z,91.14
2023-01-31T08:19:14.958Z,91.14
2023-01-31T08:20:14.948Z,90.93
2023-01-31T08:21:14.956Z,90.62
2023-01-31T08:22:14.920Z,90.52
2023-01-31T08:23:14.911Z,90.52
2023-01-31T08:24:14.904Z,90.48
2023-01-31T08:25:14.876Z,90.37
2023-01-31T08:26:14.922Z,90.06
2023-01-31T08:27:14.854Z,89.96
2023-01-31T08:28:14.849Z,89.75
2023-01-31T08:29:14.843Z,89.96
2023-01-31T08:30:14.812Z,89.75
2023-01-31T08:31:14.993Z,89.40
2023-01-31T08:32:14.884Z,89.29
2023-01-31T08:33:14.778Z,89.29
2023-01-31T08:34:14.791Z,89.61
2023-01-31T08:35:14.749Z,89.71
2023-01-31T08:36:14.748Z,89.29
2023-01-31T08:37:16.304Z,89.40
2023-01-31T08:38:16.785Z,89.19
2023-01-31T08:39:14.697Z,89.29
2023-01-31T08:40:14.694Z,89.40
2023-01-31T08:41:14.685Z,89.09
2023-01-31T08:42:14.658Z,89.19
2023-01-31T08:43:14.649Z,89.09
2023-01-31T08:44:14.644Z,89.19
2023-01-31T08:45:14.612Z,89.09
2023-01-31T08:46:14.695Z,88.98
2023-01-31T08:47:14.614Z,89.29
2023-01-31T08:48:14.576Z,89.50
2023-01-31T08:49:14.559Z,89.29
2023-01-31T08:50:26.031Z,89.29
2023-01-31T08:51:15.558Z,88.98
2023-01-31T08:52:14.528Z,89.19
2023-01-31T08:53:14.510Z,89.04
2023-01-31T08:54:14.536Z,89.15
2023-01-31T08:55:14.488Z,88.84
2023-01-31T08:56:14.497Z,88.88
2023-01-31T08:57:14.458Z,88.94
2023-01-31T08:58:14.448Z,88.98
2023-01-31T08:59:14.431Z,88.88
2023-01-31T09:00:14.431Z,89.09
2023-01-31T09:01:14.489Z,88.88
2023-01-31T09:02:14.395Z,89.09
2023-01-31T09:03:14.400Z,88.98
2023-01-31T09:04:14.394Z,88.57
2023-01-31T09:05:14.354Z,88.78
2023-01-31T09:06:14.376Z,88.78
2023-01-31T09:07:14.324Z,89.29
2023-01-31T09:08:14.316Z,89.09
2023-01-31T09:09:14.307Z,89.09
2023-01-31T09:10:14.292Z,89.29
2023-01-31T09:11:14.271Z,89.40
2023-01-31T09:12:14.285Z,89.71
2023-01-31T09:13:14.252Z,89.50
2023-01-31T09:14:14.248Z,89.65
2023-01-31T09:15:14.238Z,89.86
2023-01-31T09:16:14.224Z,89.86
2023-01-31T09:17:14.277Z,89.86
2023-01-31T09:18:14.182Z,89.61
2023-01-31T09:19:14.195Z,89.40
2023-01-31T09:20:14.164Z,89.04
2023-01-31T09:21:14.146Z,88.42
2023-01-31T09:22:14.149Z,88.32
2023-01-31T09:23:14.117Z,88.32
2023-01-31T09:24:14.107Z,88.21
2023-01-31T09:25:14.093Z,88.59
2023-01-31T09:26:14.154Z,87.80
2023-01-31T09:27:14.079Z,88.07
2023-01-31T09:28:14.068Z,88.28
2023-01-31T09:29:14.037Z,88.11
2023-01-31T09:30:14.032Z,88.73
2023-01-31T09:31:14.108Z,89.36
2023-01-31T09:32:14.012Z,89.15
2023-01-31T09:33:13.986Z,89.15
2023-01-31T09:34:13.973Z,89.15
2023-01-31T09:35:14.411Z,89.36
2023-01-31T09:36:13.957Z,89.36
2023-01-31T09:37:13.953Z,88.73
2023-01-31T09:38:13.922Z,89.25
2023-01-31T09:39:13.920Z,89.04
2023-01-31T09:40:13.900Z,89.04
2023-01-31T09:41:13.880Z,88.98
2023-01-31T09:42:13.890Z,89.09
2023-01-31T09:43:13.857Z,89.29
2023-01-31T09:44:13.850Z,89.25
2023-01-31T09:45:13.835Z,89.25
2023-01-31T09:46:13.826Z,89.15
2023-01-31T09:47:13.819Z,89.21
2023-01-31T09:48:13.793Z,88.79
2023-01-31T09:49:13.782Z,88.59
2023-01-31T09:50:13.800Z,88.59
2023-01-31T09:51:13.779Z,88.90
2023-01-31T09:52:13.763Z,88.69
2023-01-31T09:53:13.727Z,88.69
2023-01-31T09:54:13.722Z,88.39
2023-01-31T09:55:13.701Z,88.69
2023-01-31T09:56:13.691Z,89.00
2023-01-31T09:57:13.686Z,88.94
2023-01-31T09:58:13.667Z,89.15
2023-01-31T09:59:13.654Z,89.36
2023-01-31T10:00:13.711Z,89.46
2023-01-31T10:01:13.662Z,89.36
2023-01-31T10:02:13.642Z,89.67
2023-01-31T10:03:13.599Z,89.71
2023-01-31T10:04:13.597Z,89.92
2023-01-31T10:05:13.576Z,90.02
2023-01-31T10:06:13.559Z,90.44
2023-01-31T10:07:13.581Z,90.44
2023-01-31T10:08:13.533Z,90.44
2023-01-31T10:09:13.518Z,90.44
2023-01-31T10:10:13.517Z,90.54
2023-01-31T10:11:13.492Z,90.33
2023-01-31T10:12:13.494Z,90.64
2023-01-31T10:13:13.462Z,90.95
2023-01-31T10:14:13.473Z,91.06
2023-01-31T10:15:13.460Z,91.06
2023-01-31T10:16:13.444Z,91.10
2023-01-31T10:17:13.474Z,91.16
2023-01-31T10:18:13.401Z,90.89
2023-01-31T10:19:13.391Z,90.89
2023-01-31T10:20:13.388Z,91.00
2023-01-31T10:21:13.391Z,91.20
2023-01-31T10:22:13.366Z,91.27
2023-01-31T10:23:13.364Z,91.37
2023-01-31T10:24:13.324Z,90.89
2023-01-31T10:25:13.315Z,91.10
2023-01-31T10:26:14.726Z,91.31
2023-01-31T10:27:13.297Z,91.27
2023-01-31T10:28:13.292Z,91.37
2023-01-31T10:29:13.280Z,91.47
2023-01-31T10:30:13.255Z,91.47
2023-01-31T10:31:13.440Z,91.47
2023-01-31T10:32:13.260Z,91.27
2023-01-31T10:33:13.205Z,91.27
2023-01-31T10:34:13.187Z,91.47
2023-01-31T10:35:13.174Z,91.31
2023-01-31T10:36:13.161Z,91.52
2023-01-31T10:37:13.161Z,91.72
2023-01-31T10:38:13.144Z,91.62
2023-01-31T10:39:13.143Z,91.68
2023-01-31T10:40:13.119Z,91.72
2023-01-31T10:41:13.095Z,91.58
2023-01-31T10:42:13.101Z,91.37
2023-01-31T10:43:13.066Z,91.58
2023-01-31T10:44:13.054Z,91.58
2023-01-31T10:45:13.045Z,91.58
2023-01-31T10:46:13.219Z,91.47
2023-01-31T10:47:13.031Z,91.89
2023-01-31T10:48:13.008Z,91.78
2023-01-31T10:49:12.988Z,91.78
2023-01-31T10:50:12.977Z,91.89
2023-01-31T10:51:12.966Z,91.47
2023-01-31T10:52:12.962Z,91.68
2023-01-31T10:53:12.951Z,91.89
2023-01-31T10:54:12.955Z,91.85
2023-01-31T10:55:12.938Z,91.74
2023-01-31T10:56:12.914Z,91.53
2023-01-31T10:57:12.882Z,91.33
2023-01-31T10:58:12.887Z,91.58
2023-01-31T10:59:12.871Z,91.85
2023-01-31T11:00:12.872Z,91.85
2023-01-31T11:01:12.902Z,91.99
2023-01-31T11:02:12.892Z,92.05
2023-01-31T11:03:12.829Z,91.95
2023-01-31T11:04:12.791Z,91.89
2023-01-31T11:05:12.785Z,91.89
2023-01-31T11:06:12.796Z,92.20
2023-01-31T11:07:12.764Z,92.30
2023-01-31T11:08:12.765Z,92.41
2023-01-31T11:09:12.730Z,92.51
2023-01-31T11:10:12.709Z,92.51
2023-01-31T11:11:12.724Z,92.68
2023-01-31T11:12:12.689Z,92.61
2023-01-31T11:13:12.685Z,92.57
2023-01-31T11:14:12.660Z,92.57
2023-01-31T11:15:12.653Z,92.47
2023-01-31T11:16:12.726Z,92.57
2023-01-31T11:17:12.621Z,92.68
2023-01-31T11:18:12.625Z,92.88
2023-01-31T11:19:12.598Z,92.88
2023-01-31T11:20:12.581Z,92.98
2023-01-31T11:21:12.564Z,92.78
2023-01-31T11:22:12.556Z,92.78
2023-01-31T11:23:12.571Z,93.02
2023-01-31T11:24:12.523Z,93.19
2023-01-31T11:25:12.515Z,93.19
2023-01-31T11:26:12.628Z,93.19
2023-01-31T11:27:12.508Z,93.29
2023-01-31T11:28:12.487Z,93.40
2023-01-31T11:29:12.465Z,93.19
2023-01-31T11:30:12.449Z,93.19
2023-01-31T11:31:12.437Z,93.08
2023-01-31T11:32:12.415Z,93.08
2023-01-31T11:33:12.420Z,93.29
2023-01-31T11:34:12.390Z,93.19
2023-01-31T11:35:12.397Z,93.29
2023-01-31T11:36:12.370Z,93.19
2023-01-31T11:37:12.357Z,93.29
2023-01-31T11:38:12.355Z,93.29
2023-01-31T11:39:12.335Z,93.29
2023-01-31T11:40:12.318Z,93.40
2023-01-31T11:41:12.299Z,93.29
2023-01-31T11:42:12.289Z,93.40
2023-01-31T11:43:12.332Z,93.50
2023-01-31T11:44:12.259Z,93.40
2023-01-31T11:45:12.244Z,93.19
2023-01-31T11:46:12.320Z,93.19
2023-01-31T11:47:12.221Z,93.40
2023-01-31T11:48:12.262Z,93.40
2023-01-31T11:49:12.194Z,93.19
2023-01-31T11:50:12.179Z,93.40
2023-01-31T11:51:12.163Z,93.29
2023-01-31T11:52:12.152Z,93.15
2023-01-31T11:53:12.163Z,93.15
2023-01-31T11:54:12.131Z,93.15
2023-01-31T11:55:12.113Z,93.15
2023-01-31T11:56:12.095Z,93.15
2023-01-31T11:57:12.094Z,93.25
2023-01-31T11:58:12.092Z,93.25
2023-01-31T11:59:12.081Z,92.94
2023-01-31T12:00:12.375Z,92.94
2023-01-31T12:01:12.036Z,92.74
2023-01-31T12:02:12.046Z,92.63
2023-01-31T12:03:12.055Z,92.59
2023-01-31T12:04:12.031Z,92.18
2023-01-31T12:05:11.988Z,92.18
2023-01-31T12:06:11.976Z,92.18
2023-01-31T12:07:11.953Z,92.18
2023-01-31T12:08:11.960Z,92.18
2023-01-31T12:09:11.929Z,92.38
2023-01-31T12:10:11.921Z,92.28
2023-01-31T12:11:11.911Z,92.18
2023-01-31T12:12:11.891Z,91.97
2023-01-31T12:13:18.532Z,91.55
2023-01-31T12:14:12.870Z,91.45
2023-01-31T12:15:11.877Z,91.14
2023-01-31T12:16:11.907Z,91.14
2023-01-31T12:17:11.831Z,91.20
2023-01-31T12:18:11.825Z,90.89
2023-01-31T12:19:11.827Z,90.47
2023-01-31T12:20:27.199Z,90.26
2023-01-31T12:21:11.781Z,90.37
2023-01-31T12:22:11.759Z,90.37
2023-01-31T12:23:11.752Z,90.06
2023-01-31T12:24:11.760Z,90.26
2023-01-31T12:25:11.735Z,90.06
2023-01-31T12:26:11.707Z,90.16
2023-01-31T12:27:11.712Z,90.47
2023-01-31T12:28:11.704Z,90.58
2023-01-31T12:29:11.998Z,90.26
2023-01-31T12:30:11.692Z,90.26
2023-01-31T12:31:11.758Z,90.37
2023-01-31T12:32:11.630Z,90.26
2023-01-31T12:33:11.616Z,90.26
2023-01-31T12:34:11.619Z,90.16
2023-01-31T12:35:11.596Z,90.16
2023-01-31T12:36:11.573Z,90.26
2023-01-31T12:37:11.560Z,89.86
2023-01-31T12:38:11.545Z,89.96
2023-01-31T12:39:11.550Z,90.23
2023-01-31T12:40:24.244Z,90.02
2023-01-31T12:41:11.523Z,89.96
2023-01-31T12:42:11.492Z,89.50
2023-01-31T12:43:11.489Z,89.40
2023-01-31T12:44:11.486Z,89.50
2023-01-31T12:45:11.456Z,89.71
2023-01-31T12:46:11.539Z,89.50
2023-01-31T12:47:12.032Z,89.50
2023-01-31T12:48:11.417Z,89.29
2023-01-31T12:49:11.424Z,89.61
2023-01-31T12:50:11.389Z,89.29
2023-01-31T12:51:11.383Z,89.09
2023-01-31T12:52:11.365Z,89.09